Time;durP1;ratioP1;P1;durP2;ratioP2;P2;SDS_P1;SDS_P2;PMS_P1;PMS_P2;Temp;Humidity;BMP_temperature;BMP_pressure;BME280_temperature;BME280_humidity;BME280_pressure;Samples;Min_cycle;Max_cycle;Signal;HPM_P1;HPM_P2
2022/01/13 00:01:54;;;;;;;1999.90;999.90;;;3.00;99.90;;;;;;5090967;28;20445;-72
2022/01/13 00:04:21;;;;;;;1999.90;999.90;;;3.10;99.90;;;;;;5094783;28;21111;-71
2022/01/13 00:06:48;;;;;;;1999.90;999.90;;;3.10;99.90;;;;;;5092046;28;20452;-71
2022/01/13 00:09:15;;;;;;;1999.90;999.90;;;3.10;99.90;;;;;;5094145;28;20436;-73
2022/01/13 00:11:43;;;;;;;1999.90;999.90;;;3.20;99.90;;;;;;5077720;28;20445;-71
2022/01/13 00:19:57;;;;;;;1999.90;999.90;;;3.60;99.90;;;;;;5080929;28;20499;-71
2022/01/13 00:22:41;;;;;;;1999.90;999.90;;;3.80;99.90;;;;;;5093826;28;20483;-71
2022/01/13 00:25:11;;;;;;;1999.90;999.90;;;3.80;99.90;;;;;;5082453;28;20480;-71
2022/01/13 00:27:42;;;;;;;1999.90;999.90;;;3.90;99.90;;;;;;5073518;28;20434;-71
2022/01/13 00:30:16;;;;;;;1999.90;999.90;;;3.80;99.90;;;;;;5083335;28;20463;-71
2022/01/13 00:32:44;;;;;;;1999.90;999.90;;;3.80;99.90;;;;;;5092040;28;20492;-71
2022/01/13 00:35:11;;;;;;;1999.90;999.90;;;3.90;99.90;;;;;;5073201;28;20475;-71
2022/01/13 00:37:38;;;;;;;1999.90;999.90;;;3.90;99.90;;;;;;5084670;28;20949;-70
2022/01/13 00:40:06;;;;;;;1999.90;999.90;;;3.80;99.90;;;;;;5053026;28;20501;-71
2022/01/13 00:42:32;;;;;;;1999.90;999.90;;;3.80;99.90;;;;;;5053260;28;20446;-71
2022/01/13 00:45:00;;;;;;;1999.90;999.90;;;3.80;99.90;;;;;;5089981;28;20468;-71
2022/01/13 00:47:30;;;;;;;1999.90;999.90;;;3.70;99.90;;;;;;5093138;28;20458;-71
2022/01/13 00:49:57;;;;;;;1999.90;999.90;;;3.80;99.90;;;;;;5073920;28;20813;-71
2022/01/13 00:52:24;;;;;;;1999.90;999.90;;;3.70;99.90;;;;;;5081280;28;20453;-71
2022/01/13 00:54:50;;;;;;;1999.90;999.90;;;3.70;99.90;;;;;;5093298;28;20498;-73
2022/01/13 00:57:17;;;;;;;1999.90;999.90;;;3.70;99.90;;;;;;5084749;28;20945;-71
2022/01/13 00:59:43;;;;;;;1999.90;999.90;;;3.70;99.90;;;;;;5073574;28;20519;-71
2022/01/13 01:02:10;;;;;;;1999.90;999.90;;;3.70;99.90;;;;;;5085988;28;20442;-71
2022/01/13 01:04:38;;;;;;;1999.90;999.90;;;3.70;99.90;;;;;;5072656;28;20486;-71
2022/01/13 01:07:05;;;;;;;1999.90;999.90;;;3.70;99.90;;;;;;5078116;28;20514;-71
2022/01/13 01:09:39;;;;;;;1999.90;999.90;;;3.70;99.90;;;;;;5092756;28;20474;-72
2022/01/13 01:12:06;;;;;;;1999.90;999.90;;;3.80;99.90;;;;;;5075612;28;20899;-71
2022/01/13 01:14:36;;;;;;;1999.90;999.90;;;3.80;99.90;;;;;;5077981;28;20461;-71
2022/01/13 01:17:03;;;;;;;1999.90;999.90;;;3.90;99.90;;;;;;5076734;28;20481;-71
2022/01/13 01:19:30;;;;;;;1999.90;999.90;;;4.00;99.90;;;;;;5072931;28;20534;-72
2022/01/13 01:27:33;;;;;;;1999.90;999.90;;;4.30;99.90;;;;;;5073700;28;20519;-72
2022/01/13 01:30:04;;;;;;;1999.90;999.90;;;4.40;99.90;;;;;;5073133;28;20446;-68
2022/01/13 01:32:34;;;;;;;1999.90;999.90;;;4.40;99.90;;;;;;5072592;28;20457;-71
2022/01/13 01:35:03;;;;;;;1999.90;999.90;;;4.40;99.90;;;;;;5081599;28;20504;-71
2022/01/13 01:37:32;;;;;;;1999.90;999.90;;;4.40;99.90;;;;;;5092862;28;20479;-70
2022/01/13 01:40:00;;;;;;;1999.90;999.90;;;4.50;99.90;;;;;;5082934;28;20486;-74
2022/01/13 01:42:28;;;;;;;1999.90;999.90;;;4.50;99.90;;;;;;5070977;28;20480;-71
2022/01/13 01:44:58;;;;;;;1999.90;999.90;;;4.60;99.90;;;;;;5071432;28;20504;-71
2022/01/13 01:47:27;;;;;;;1999.90;999.90;;;4.70;99.90;;;;;;5070218;28;20449;-71
2022/01/13 01:49:57;;;;;;;1999.90;999.90;;;4.60;99.90;;;;;;5085249;28;21002;-71
2022/01/13 01:52:25;;;;;;;1999.90;999.90;;;4.50;99.90;;;;;;5090745;28;20956;-71
2022/01/13 01:54:53;;;;;;;1999.90;999.90;;;4.50;99.90;;;;;;5089671;28;20983;-71
2022/01/13 01:57:22;;;;;;;1999.90;999.90;;;4.50;99.90;;;;;;5091305;28;20661;-71
2022/01/13 01:59:49;;;;;;;1999.90;999.90;;;4.60;99.90;;;;;;5090656;28;20480;-71
2022/01/13 02:02:16;;;;;;;1999.90;999.90;;;4.70;99.90;;;;;;5088253;28;20449;-71
2022/01/13 02:04:44;;;;;;;1999.90;999.90;;;4.70;99.90;;;;;;5071928;28;20481;-71
2022/01/13 02:07:13;;;;;;;1999.90;999.90;;;4.80;99.90;;;;;;5072986;28;20444;-71
2022/01/13 02:09:42;;;;;;;1999.90;999.90;;;5.00;99.90;;;;;;5090974;28;20452;-71
2022/01/13 02:12:19;;;;;;;1999.90;999.90;;;5.00;99.90;;;;;;5090330;28;20497;-71
2022/01/13 02:14:57;;;;;;;1999.90;999.90;;;5.10;99.90;;;;;;5056071;28;20484;-71
2022/01/13 02:17:26;;;;;;;1999.90;999.90;;;5.20;99.90;;;;;;5052632;28;20430;-71
2022/01/13 02:19:57;;;;;;;1999.90;999.90;;;5.20;99.90;;;;;;5053233;28;20478;-72
2022/01/13 02:22:25;;;;;;;1999.90;999.90;;;5.30;99.90;;;;;;5053340;28;20453;-71
2022/01/13 02:24:53;;;;;;;1999.90;999.90;;;5.40;99.90;;;;;;5053650;28;20466;-71
2022/01/13 02:27:20;;;;;;;1999.90;999.90;;;5.50;99.90;;;;;;5089881;28;20966;-71
2022/01/13 02:29:47;;;;;;;1999.90;999.90;;;5.50;99.90;;;;;;5073988;28;20485;-71
2022/01/13 02:32:14;;;;;;;1999.90;999.90;;;5.60;99.90;;;;;;5090985;28;20448;-72
2022/01/13 02:34:41;;;;;;;1999.90;999.90;;;5.70;99.90;;;;;;5086958;28;20490;-71
2022/01/13 02:37:08;;;;;;;1999.90;999.90;;;5.80;99.90;;;;;;5074988;28;21015;-71
2022/01/13 02:39:37;;;;;;;1999.90;999.90;;;5.70;99.90;;;;;;5079239;28;20472;-72
2022/01/13 02:42:11;;;;;;;1999.90;999.90;;;5.80;99.90;;;;;;5088349;28;20472;-71
2022/01/13 02:44:45;;;;;;;1999.90;999.90;;;5.80;99.90;;;;;;5077231;28;20499;-71
2022/01/13 02:47:21;;;;;;;1999.90;999.90;;;5.80;99.90;;;;;;5092959;28;20452;-71
2022/01/13 02:49:49;;;;;;;1999.90;999.90;;;5.80;99.90;;;;;;5087352;28;21000;-70
2022/01/13 02:52:15;;;;;;;1999.90;999.90;;;5.70;99.90;;;;;;5072772;28;20445;-73
2022/01/13 02:54:44;;;;;;;1999.90;999.90;;;5.70;99.90;;;;;;5090439;28;20464;-71
2022/01/13 02:57:10;;;;;;;1999.90;999.90;;;5.60;99.90;;;;;;5086048;28;20671;-71
2022/01/13 02:59:37;;;;;;;1999.90;999.90;;;5.60;99.90;;;;;;5088405;28;20481;-71
2022/01/13 03:02:04;;;;;;;1999.90;999.90;;;5.60;99.90;;;;;;5093807;28;20502;-71
2022/01/13 03:04:30;;;;;;;1999.90;999.90;;;5.60;99.90;;;;;;5078470;28;20469;-72
2022/01/13 03:06:57;;;;;;;1999.90;999.90;;;5.50;99.90;;;;;;5072774;28;20480;-71
2022/01/13 03:09:24;;;;;;;1999.90;999.90;;;5.50;99.90;;;;;;5083730;28;20444;-71
2022/01/13 03:11:52;;;;;;;1999.90;999.90;;;5.40;99.90;;;;;;5080077;28;20445;-71
2022/01/13 03:14:18;;;;;;;1999.90;999.90;;;5.40;99.90;;;;;;5071302;28;20449;-71
2022/01/13 03:16:45;;;;;;;1999.90;999.90;;;5.30;99.90;;;;;;5074489;28;20445;-72
2022/01/13 03:19:13;;;;;;;1999.90;999.90;;;5.20;99.90;;;;;;5092907;28;20449;-71
2022/01/13 03:21:40;;;;;;;1999.90;999.90;;;5.10;99.90;;;;;;5094779;28;21211;-71
2022/01/13 03:24:09;;;;;;;1999.90;999.90;;;5.10;99.90;;;;;;5077358;28;20441;-71
2022/01/13 03:26:36;;;;;;;1999.90;999.90;;;5.00;99.90;;;;;;5085596;28;20831;-72
2022/01/13 03:29:15;;;;;;;1999.90;999.90;;;5.00;99.90;;;;;;5078455;28;20450;-71
2022/01/13 03:31:44;;;;;;;1999.90;999.90;;;4.90;99.90;;;;;;5074682;28;20532;-71
2022/01/13 03:34:13;;;;;;;1999.90;999.90;;;4.80;99.90;;;;;;5074751;28;20441;-72
2022/01/13 03:36:39;;;;;;;1999.90;999.90;;;4.80;99.90;;;;;;5080497;28;20630;-71
2022/01/13 03:39:08;;;;;;;1999.90;999.90;;;4.80;99.90;;;;;;5094828;28;20449;-71
2022/01/13 03:41:35;;;;;;;1999.90;999.90;;;4.70;99.90;;;;;;5089258;28;20844;-71
2022/01/13 03:44:06;;;;;;;1999.90;999.90;;;4.70;99.90;;;;;;5074440;28;20449;-71
2022/01/13 03:46:35;;;;;;;1999.90;999.90;;;4.60;99.90;;;;;;5075021;28;20458;-71
2022/01/13 03:49:02;;;;;;;1999.90;999.90;;;4.60;99.90;;;;;;5074388;28;20953;-71
2022/01/13 03:52:17;;;;;;;1999.90;999.90;;;4.60;99.90;;;;;;5085261;28;20445;-71
2022/01/13 03:55:32;;;;;;;1999.90;999.90;;;4.60;99.90;;;;;;5094677;28;20506;-71
2022/01/13 03:58:43;;;;;;;1999.90;999.90;;;4.50;99.90;;;;;;5054890;28;20426;-71
2022/01/13 04:01:46;;;;;;;1999.90;999.90;;;4.60;99.90;;;;;;5070357;28;20464;-71
2022/01/13 04:04:14;;;;;;;1999.90;999.90;;;4.60;99.90;;;;;;5093017;28;20513;-71
2022/01/13 04:06:43;;;;;;;1999.90;999.90;;;4.50;99.90;;;;;;5074910;28;20446;-72
2022/01/13 04:09:25;;;;;;;1999.90;999.90;;;4.50;99.90;;;;;;5075874;28;20868;-72
2022/01/13 04:11:52;;;;;;;1999.90;999.90;;;4.40;99.90;;;;;;5055672;28;20984;-73
2022/01/13 04:14:27;;;;;;;1999.90;999.90;;;4.40;99.90;;;;;;5073442;28;20874;-71
2022/01/13 04:16:54;;;;;;;1999.90;999.90;;;4.30;99.90;;;;;;5092925;28;20463;-71
2022/01/13 04:19:22;;;;;;;1999.90;999.90;;;4.30;99.90;;;;;;5084059;28;20936;-72
2022/01/13 04:21:49;;;;;;;1999.90;999.90;;;4.20;99.90;;;;;;5095846;28;20432;-71
2022/01/13 04:24:15;;;;;;;1999.90;999.90;;;4.20;99.90;;;;;;5093929;28;20498;-71
2022/01/13 04:26:44;;;;;;;1999.90;999.90;;;4.20;99.90;;;;;;5094652;28;20501;-71
2022/01/13 04:29:20;;;;;;;1999.90;999.90;;;4.10;99.90;;;;;;5085115;28;20453;-71
2022/01/13 04:31:49;;;;;;;1999.90;999.90;;;4.20;99.90;;;;;;5080928;28;20448;-71
2022/01/13 04:34:17;;;;;;;1999.90;999.90;;;4.20;99.90;;;;;;5085032;28;20449;-71
2022/01/13 04:36:45;;;;;;;1999.90;999.90;;;4.10;99.90;;;;;;5074195;28;20445;-72
2022/01/13 04:39:14;;;;;;;1999.90;999.90;;;4.30;99.90;;;;;;5081421;28;20956;-71
2022/01/13 04:41:43;;;;;;;1999.90;999.90;;;4.20;99.90;;;;;;5093396;28;20491;-71
2022/01/13 04:44:12;;;;;;;1999.90;999.90;;;4.10;99.90;;;;;;5093406;28;20884;-73
2022/01/13 04:46:39;;;;;;;1999.90;999.90;;;4.00;99.90;;;;;;5085544;28;20801;-71
2022/01/13 04:49:07;;;;;;;1999.90;999.90;;;3.90;99.90;;;;;;5089434;28;20480;-71
2022/01/13 04:51:33;;;;;;;1999.90;999.90;;;3.90;99.90;;;;;;5092546;28;20440;-71
2022/01/13 04:54:01;;;;;;;1999.90;999.90;;;4.00;99.90;;;;;;5077880;28;20453;-71
2022/01/13 04:56:30;;;;;;;1999.90;999.90;;;3.70;99.90;;;;;;5086108;28;20476;-71
2022/01/13 04:58:58;;;;;;;1999.90;999.90;;;3.70;99.90;;;;;;5093219;28;20936;-70
2022/01/13 05:01:25;;;;;;;1999.90;999.90;;;3.70;99.90;;;;;;5091542;28;21041;-70
2022/01/13 05:03:51;;;;;;;1999.90;999.90;;;3.60;99.90;;;;;;5092923;28;21045;-71
2022/01/13 05:06:19;;;;;;;1999.90;999.90;;;3.60;99.90;;;;;;5091910;28;20484;-71
2022/01/13 05:08:45;;;;;;;1999.90;999.90;;;3.60;99.90;;;;;;5092789;28;20937;-71
2022/01/13 05:11:14;;;;;;;1999.90;999.90;;;3.70;99.90;;;;;;5082976;28;20445;-72
2022/01/13 05:13:40;;;;;;;1999.90;999.90;;;3.70;99.90;;;;;;5072794;28;20493;-72
2022/01/13 05:16:10;;;;;;;1999.90;999.90;;;3.90;99.90;;;;;;5074883;28;20473;-71
2022/01/13 05:18:47;;;;;;;1999.90;999.90;;;3.90;99.90;;;;;;5079084;28;20453;-71
2022/01/13 05:21:21;;;;;;;1999.90;999.90;;;4.00;99.90;;;;;;5092374;28;20495;-70
2022/01/13 05:23:49;;;;;;;1999.90;999.90;;;4.20;99.90;;;;;;5091053;28;20444;-70
2022/01/13 05:26:17;;;;;;;1999.90;999.90;;;4.40;99.90;;;;;;5092775;28;20465;-71
2022/01/13 05:28:43;;;;;;;1999.90;999.90;;;4.50;99.90;;;;;;5085428;28;20803;-73
2022/01/13 05:31:10;;;;;;;1999.90;999.90;;;4.40;99.90;;;;;;5089453;28;20444;-71
2022/01/13 05:33:38;;;;;;;1999.90;999.90;;;4.40;99.90;;;;;;5087420;28;20445;-70
2022/01/13 05:36:05;;;;;;;1999.90;999.90;;;4.40;99.90;;;;;;5073908;28;20469;-71
2022/01/13 05:38:32;;;;;;;1999.90;999.90;;;4.30;99.90;;;;;;5082790;28;20452;-71
2022/01/13 05:40:59;;;;;;;1999.90;999.90;;;4.10;99.90;;;;;;5092138;28;20533;-71
2022/01/13 05:43:27;;;;;;;1999.90;999.90;;;3.80;99.90;;;;;;5082250;28;20532;-71
2022/01/13 05:45:54;;;;;;;1999.90;999.90;;;3.70;99.90;;;;;;5072254;28;20465;-71
2022/01/13 05:48:20;;;;;;;1999.90;999.90;;;3.70;99.90;;;;;;5080484;28;20457;-71
2022/01/13 05:50:47;;;;;;;1999.90;999.90;;;3.60;99.90;;;;;;5091868;28;20498;-70
2022/01/13 05:53:14;;;;;;;1999.90;999.90;;;3.60;99.90;;;;;;5084795;28;20453;-69
2022/01/13 05:55:40;;;;;;;1999.90;999.90;;;3.60;99.90;;;;;;5072285;28;20473;-71
2022/01/13 05:58:07;;;;;;;1999.90;999.90;;;3.70;99.90;;;;;;5087489;28;20452;-71
2022/01/13 06:00:35;;;;;;;1999.90;999.90;;;3.80;99.90;;;;;;5091159;28;20484;-73
2022/01/13 06:03:02;;;;;;;1999.90;999.90;;;3.90;99.90;;;;;;5077847;28;21015;-71
2022/01/13 06:05:29;;;;;;;1999.90;999.90;;;4.00;99.90;;;;;;5072635;28;20481;-71
2022/01/13 06:07:56;;;;;;;1999.90;999.90;;;4.10;99.90;;;;;;5084605;28;20452;-71
2022/01/13 06:10:23;;;;;;;1999.90;999.90;;;4.20;99.90;;;;;;5091921;28;20497;-73
2022/01/13 06:12:51;;;;;;;1999.90;999.90;;;4.10;99.90;;;;;;5080116;28;20507;-70
2022/01/13 06:15:19;;;;;;;1999.90;999.90;;;4.10;99.90;;;;;;5091063;28;20988;-71
2022/01/13 06:17:51;;;;;;;1999.90;999.90;;;4.10;99.90;;;;;;5072488;28;20445;-68
2022/01/13 06:20:19;;;;;;;1999.90;999.90;;;4.10;99.90;;;;;;5071751;28;20437;-71
2022/01/13 06:22:47;;;;;;;1999.90;999.90;;;4.00;99.90;;;;;;5090102;28;21030;-73
2022/01/13 06:25:14;;;;;;;1999.90;999.90;;;4.00;99.90;;;;;;5091732;28;20480;-73
2022/01/13 06:27:42;;;;;;;1999.90;999.90;;;4.00;99.90;;;;;;5077383;28;20509;-71
2022/01/13 06:30:11;;;;;;;1999.90;999.90;;;4.00;99.90;;;;;;5091356;28;20868;-71
2022/01/13 06:32:38;;;;;;;1999.90;999.90;;;3.90;99.90;;;;;;5082230;28;20448;-71
2022/01/13 06:35:07;;;;;;;1999.90;999.90;;;3.80;99.90;;;;;;5079590;28;20473;-71
2022/01/13 06:37:34;;;;;;;1999.90;999.90;;;3.90;99.90;;;;;;5071840;28;20445;-70
2022/01/13 06:40:02;;;;;;;1999.90;999.90;;;3.90;99.90;;;;;;5071439;28;20481;-72
2022/01/13 06:42:29;;;;;;;1999.90;999.90;;;3.90;99.90;;;;;;5072467;28;20481;-73
2022/01/13 06:44:55;;;;;;;1999.90;999.90;;;3.90;99.90;;;;;;5073376;28;20485;-71
2022/01/13 06:47:22;;;;;;;1999.90;999.90;;;3.90;99.90;;;;;;5074681;28;20457;-71
2022/01/13 06:49:49;;;;;;;1999.90;999.90;;;3.80;99.90;;;;;;5091583;28;20448;-71
2022/01/13 06:52:17;;;;;;;1999.90;999.90;;;3.80;99.90;;;;;;5094886;28;21250;-71
2022/01/13 06:54:44;;;;;;;1999.90;999.90;;;3.80;99.90;;;;;;5078166;28;20469;-72
2022/01/13 06:57:11;;;;;;;1999.90;999.90;;;3.70;99.90;;;;;;5075270;28;20444;-70
2022/01/13 06:59:37;;;;;;;1999.90;999.90;;;3.60;99.90;;;;;;5082283;28;20453;-70
2022/01/13 07:02:04;;;;;;;1999.90;999.90;;;3.50;99.90;;;;;;5074653;28;20546;-67
2022/01/13 07:04:31;;;;;;;1999.90;999.90;;;3.50;99.90;;;;;;5088231;28;20494;-71
2022/01/13 07:06:57;;;;;;;1999.90;999.90;;;3.60;99.90;;;;;;5090328;28;20537;-70
2022/01/13 07:09:25;;;;;;;1999.90;999.90;;;3.60;99.90;;;;;;5075087;28;20510;-71
2022/01/13 07:11:52;;;;;;;1999.90;999.90;;;3.70;99.90;;;;;;5076033;28;20833;-70
2022/01/13 07:14:19;;;;;;;1999.90;999.90;;;3.80;99.90;;;;;;5095039;28;20509;-71
2022/01/13 07:16:46;;;;;;;1999.90;999.90;;;3.80;99.90;;;;;;5092882;28;20436;-73
2022/01/13 07:19:15;;;;;;;1999.90;999.90;;;3.80;99.90;;;;;;5074577;28;20441;-71
2022/01/13 07:21:42;;;;;;;1999.90;999.90;;;3.80;99.90;;;;;;5074950;28;20507;-70
2022/01/13 07:24:09;;;;;;;1999.90;999.90;;;3.80;99.90;;;;;;5075353;28;20461;-71
2022/01/13 07:26:37;;;;;;;1999.90;999.90;;;3.80;99.90;;;;;;5075977;28;20441;-70
2022/01/13 07:29:07;;;;;;;1999.90;999.90;;;3.80;99.90;;;;;;5073084;28;20945;-70
2022/01/13 07:31:34;;;;;;;1999.90;999.90;;;3.80;99.90;;;;;;5076371;28;20971;-70
2022/01/13 07:34:00;;;;;;;1999.90;999.90;;;3.80;99.90;;;;;;5094391;28;20497;-71
2022/01/13 07:36:27;;;;;;;1999.90;999.90;;;3.60;99.90;;;;;;5091667;28;20469;-73
2022/01/13 07:38:54;;;;;;;1999.90;999.90;;;3.60;99.90;;;;;;5089627;28;20453;-71
2022/01/13 07:41:21;;;;;;;1999.90;999.90;;;3.60;99.90;;;;;;5093945;28;20488;-70
2022/01/13 07:43:54;;;;;;;1999.90;999.90;;;3.50;99.90;;;;;;5075436;28;20884;-71
2022/01/13 07:46:21;;;;;;;1999.90;999.90;;;3.60;99.90;;;;;;5074100;28;20480;-73
2022/01/13 07:48:47;;;;;;;1999.90;999.90;;;3.50;99.90;;;;;;5074286;28;20544;-70
2022/01/13 07:51:14;;;;;;;1999.90;999.90;;;3.60;99.90;;;;;;5085335;28;20437;-73
2022/01/13 07:53:42;;;;;;;1999.90;999.90;;;3.60;99.90;;;;;;5083553;28;20456;-71
2022/01/13 07:56:09;;;;;;;1999.90;999.90;;;3.60;99.90;;;;;;5075823;28;20558;-70
2022/01/13 07:58:37;;;;;;;1999.90;999.90;;;3.60;99.90;;;;;;5087038;28;20448;-71
2022/01/13 08:01:05;;;;;;;1999.90;999.90;;;3.80;99.90;;;;;;5074153;28;20487;-71
2022/01/13 08:03:32;;;;;;;1999.90;999.90;;;4.00;99.90;;;;;;5079889;28;20475;-71
2022/01/13 08:06:00;;;;;;;1999.90;999.90;;;4.00;99.90;;;;;;5092946;28;20472;-71
2022/01/13 08:08:27;;;;;;;1999.90;999.90;;;4.00;99.90;;;;;;5091968;28;20456;-71
2022/01/13 08:10:53;;;;;;;1999.90;999.90;;;4.10;99.90;;;;;;5093478;28;20453;-71
2022/01/13 08:13:20;;;;;;;1999.90;999.90;;;4.10;99.90;;;;;;5088601;28;20445;-72
2022/01/13 08:15:50;;;;;;;1999.90;999.90;;;4.10;99.90;;;;;;5078178;28;20477;-71
2022/01/13 08:21:03;;;;;;;1999.90;999.90;;;4.50;99.90;;;;;;5092430;28;20479;-70
2022/01/13 08:23:30;;;;;;;1999.90;999.90;;;4.50;99.90;;;;;;5093517;28;20501;-71
2022/01/13 08:25:57;;;;;;;1999.90;999.90;;;4.60;99.90;;;;;;5083067;28;20894;-70
2022/01/13 08:28:26;;;;;;;1999.90;999.90;;;4.70;99.90;;;;;;5079744;28;20460;-71
2022/01/13 08:30:52;;;;;;;1999.90;999.90;;;4.80;99.90;;;;;;5085148;28;20456;-71
2022/01/13 08:33:22;;;;;;;1999.90;999.90;;;5.00;99.90;;;;;;5094757;28;20994;-70
2022/01/13 08:35:49;;;;;;;1999.90;999.90;;;5.20;99.90;;;;;;5075626;28;20470;-71
2022/01/13 08:38:18;;;;;;;1999.90;999.90;;;5.30;99.90;;;;;;5089863;28;21190;-70
2022/01/13 08:40:46;;;;;;;1999.90;999.90;;;5.30;99.90;;;;;;5094363;28;20929;-71
2022/01/13 08:43:13;;;;;;;1999.90;999.90;;;5.30;99.90;;;;;;5093247;28;20979;-71
2022/01/13 08:45:40;;;;;;;1999.90;999.90;;;5.40;99.90;;;;;;5080356;28;20480;-68
2022/01/13 08:48:06;;;;;;;1999.90;999.90;;;5.40;99.90;;;;;;5074062;28;20870;-70
2022/01/13 08:50:35;;;;;;;1999.90;999.90;;;5.30;99.90;;;;;;5074669;28;20805;-72
2022/01/13 08:53:01;;;;;;;1999.90;999.90;;;5.30;99.90;;;;;;5075690;28;20448;-71
2022/01/13 08:55:28;;;;;;;1999.90;999.90;;;5.30;99.90;;;;;;5076498;28;20989;-70
2022/01/13 08:57:55;;;;;;;1999.90;999.90;;;5.50;99.90;;;;;;5074653;28;20441;-71
2022/01/13 09:00:23;;;;;;;1999.90;999.90;;;5.50;99.90;;;;;;5086467;28;20466;-71
2022/01/13 09:02:49;;;;;;;1999.90;999.90;;;5.50;99.90;;;;;;5094272;28;20538;-71
2022/01/13 09:05:18;;;;;;;1999.90;999.90;;;5.60;99.90;;;;;;5093365;28;20476;-72
2022/01/13 09:07:47;;;;;;;1999.90;999.90;;;5.70;99.90;;;;;;5093323;28;20501;-69
2022/01/13 09:10:16;;;;;;;1999.90;999.90;;;5.70;99.90;;;;;;5093745;28;20436;-71
2022/01/13 09:12:43;;;;;;;1999.90;999.90;;;5.80;99.90;;;;;;5093325;28;20432;-73
2022/01/13 09:15:19;;;;;;;1999.90;999.90;;;5.80;99.90;;;;;;5078887;28;20519;-71
2022/01/13 09:17:51;;;;;;;1999.90;999.90;;;5.90;99.90;;;;;;5076025;28;20474;-71
2022/01/13 09:20:17;;;;;;;1999.90;999.90;;;6.10;99.90;;;;;;5076063;28;20445;-72
2022/01/13 09:22:44;;;;;;;1999.90;999.90;;;6.10;99.90;;;;;;5074849;28;20539;-71
2022/01/13 09:25:12;;;;;;;1999.90;999.90;;;6.30;99.90;;;;;;5074387;28;20833;-71
2022/01/13 09:27:40;;;;;;;1999.90;999.90;;;6.40;99.90;;;;;;5076665;28;20441;-70
2022/01/13 09:30:09;;;;;;;1999.90;999.90;;;6.40;99.90;;;;;;5096547;28;20538;-72
2022/01/13 09:32:36;;;;;;;1999.90;999.90;;;6.50;99.90;;;;;;5096879;28;20455;-71
2022/01/13 09:35:04;;;;;;;1999.90;999.90;;;6.60;99.90;;;;;;5096559;28;20465;-70
2022/01/13 09:37:30;;;;;;;1999.90;999.90;;;6.70;99.90;;;;;;5096132;28;20444;-73
2022/01/13 09:39:57;;;;;;;1999.90;999.90;;;6.70;99.90;;;;;;5095919;28;20864;-72
2022/01/13 09:42:27;;;;;;;1999.90;999.90;;;6.80;99.90;;;;;;5095659;28;21011;-72
2022/01/13 09:44:55;;;;;;;1999.90;999.90;;;6.90;99.90;;;;;;5096612;28;20519;-71
2022/01/13 09:47:21;;;;;;;1999.90;999.90;;;7.00;99.90;;;;;;5096860;28;20479;-72
2022/01/13 09:49:49;;;;;;;1999.90;999.90;;;7.10;99.90;;;;;;5096636;28;20444;-70
2022/01/13 09:52:15;;;;;;;1999.90;999.90;;;7.20;99.90;;;;;;5096518;28;20451;-71
2022/01/13 09:54:42;;;;;;;1999.90;999.90;;;7.30;99.90;;;;;;5096568;28;20494;-71
2022/01/13 09:57:09;;;;;;;1999.90;999.90;;;7.40;99.90;;;;;;5092015;28;20445;-71
2022/01/13 09:59:37;;;;;;;1999.90;999.90;;;7.40;99.90;;;;;;5078297;28;21027;-71
2022/01/13 10:02:04;;;;;;;1999.90;999.90;;;7.50;99.90;;;;;;5089054;28;20481;-70
2022/01/13 10:04:47;;;;;;;1999.90;999.90;;;7.60;99.90;;;;;;5077211;28;20477;-71
2022/01/13 10:07:17;;;;;;;1999.90;999.90;;;7.60;99.90;;;;;;5088995;28;20553;-71
2022/01/13 10:09:53;;;;;;;1999.90;999.90;;;7.70;99.90;;;;;;5060253;28;20484;-71
2022/01/13 10:12:24;;;;;;;1999.90;999.90;;;7.80;99.90;;;;;;5084608;28;20465;-71
2022/01/13 10:17:49;;;;;;;1999.90;999.90;;;7.90;99.90;;;;;;5093294;28;20855;-71
2022/01/13 10:20:18;;;;;;;1999.90;999.90;;;7.90;99.90;;;;;;5093040;28;20440;-71
2022/01/13 10:22:45;;;;;;;1999.90;999.90;;;8.00;99.90;;;;;;5092478;28;20483;-71
2022/01/13 10:25:30;;;;;;;1999.90;999.90;;;8.10;99.90;;;;;;5094879;28;20522;-72
2022/01/13 10:28:10;;;;;;;1999.90;999.90;;;8.10;99.90;;;;;;5077983;28;20442;-71
2022/01/13 10:30:39;;;;;;;1999.90;999.90;;;8.20;99.90;;;;;;5077662;28;20472;-71
2022/01/13 10:33:15;;;;;;;1999.90;999.90;;;8.40;99.90;;;;;;5076920;28;20455;-70
2022/01/13 10:35:42;;;;;;;1999.90;999.90;;;8.50;99.90;;;;;;5077227;28;20483;-70
2022/01/13 10:38:09;;;;;;;1999.90;999.90;;;8.50;99.90;;;;;;5077256;28;20449;-71
2022/01/13 10:40:40;;;;;;;1999.90;999.90;;;8.50;99.90;;;;;;5075583;28;20488;-71
2022/01/13 10:43:10;;;;;;;1999.90;999.90;;;8.70;99.90;;;;;;5085351;28;20481;-71
2022/01/13 10:45:40;;;;;;;1999.90;999.90;;;8.80;99.90;;;;;;5095840;28;20559;-71
2022/01/13 10:48:09;;;;;;;1999.90;999.90;;;8.90;99.90;;;;;;5095981;28;20452;-71
2022/01/13 10:50:38;;;;;;;1999.90;999.90;;;8.90;99.90;;;;;;5095184;28;21005;-72
2022/01/13 10:53:07;;;;;;;1999.90;999.90;;;8.90;99.90;;;;;;5096116;28;20448;-71
2022/01/13 10:55:38;;;;;;;1999.90;999.90;;;8.90;99.90;;;;;;5095615;28;20494;-71
2022/01/13 10:58:05;;;;;;;1999.90;999.90;;;9.10;99.90;;;;;;5080110;28;20437;-72
2022/01/13 11:00:34;;;;;;;1999.90;999.90;;;9.10;99.90;;;;;;5075146;28;20441;-71
2022/01/13 11:03:08;;;;;;;1999.90;999.90;;;9.10;99.90;;;;;;5075840;28;20477;-72
2022/01/13 11:05:38;;;;;;;1999.90;999.90;;;9.00;99.90;;;;;;5075920;28;20468;-71
2022/01/13 11:08:07;;;;;;;1999.90;999.90;;;9.10;99.90;;;;;;5076070;28;20479;-71
2022/01/13 11:10:34;;;;;;;1999.90;999.90;;;9.00;99.90;;;;;;5075495;28;20449;-71
2022/01/13 11:13:03;;;;;;;1999.90;999.90;;;9.00;99.90;;;;;;5092135;28;20453;-71
2022/01/13 11:15:31;;;;;;;1999.90;999.90;;;9.00;99.90;;;;;;5082072;28;20469;-71
2022/01/13 11:17:59;;;;;;;1999.90;999.90;;;9.00;99.90;;;;;;5076916;28;20449;-71
2022/01/13 11:20:28;;;;;;;1999.90;999.90;;;8.90;99.90;;;;;;5075057;28;20499;-71
2022/01/13 11:22:57;;;;;;;1999.90;999.90;;;8.90;99.90;;;;;;5075814;28;20481;-71
2022/01/13 11:25:26;;;;;;;1999.90;999.90;;;9.00;99.90;;;;;;5074300;28;20732;-71
2022/01/13 11:27:54;;;;;;;1999.90;999.90;;;9.00;99.90;;;;;;5069595;28;20452;-72
2022/01/13 11:30:23;;;;;;;1999.90;999.90;;;8.90;99.90;;;;;;5081683;28;20872;-72
2022/01/13 11:32:51;;;;;;;1999.90;999.90;;;9.00;99.90;;;;;;5068104;28;20854;-71
2022/01/13 11:35:22;;;;;;;1999.90;999.90;;;8.90;99.90;;;;;;5053888;28;20552;-73
2022/01/13 11:37:51;;;;;;;1999.90;999.90;;;9.00;99.90;;;;;;5072309;28;21059;-71
2022/01/13 11:40:42;;;;;;;1999.90;999.90;;;9.00;99.90;;;;;;5073678;28;20818;-70
2022/01/13 11:43:23;;;;;;;1999.90;999.90;;;9.10;99.90;;;;;;5072296;28;20485;-69
2022/01/13 11:45:51;;;;;;;1999.90;999.90;;;9.10;99.90;;;;;;5057839;28;20832;-73
2022/01/13 11:48:22;;;;;;;1999.90;999.90;;;9.20;99.90;;;;;;5072750;28;20515;-72
2022/01/13 11:50:52;;;;;;;1999.90;999.90;;;9.30;99.90;;;;;;5062400;28;20847;-73
2022/01/13 11:53:25;;;;;;;1999.90;999.90;;;9.40;99.90;;;;;;5061227;28;20496;-73
2022/01/13 11:55:54;;;;;;;1999.90;999.90;;;9.50;99.90;;;;;;5054117;28;20480;-71
2022/01/13 11:58:25;;;;;;;1999.90;999.90;;;9.60;99.90;;;;;;5054129;28;20449;-73
2022/01/13 12:00:53;;;;;;;1999.90;999.90;;;9.60;99.90;;;;;;5067585;28;20440;-71
2022/01/13 12:03:24;;;;;;;1999.90;999.90;;;9.70;99.90;;;;;;5075814;28;20490;-72
2022/01/13 12:05:51;;;;;;;1999.90;999.90;;;9.80;99.90;;;;;;5090494;28;20480;-72
2022/01/13 12:08:39;;;;;;;1999.90;999.90;;;9.90;99.90;;;;;;5091270;28;20510;-73
2022/01/13 12:11:06;;;;;;;1999.90;999.90;;;10.00;99.90;;;;;;5053854;28;20446;-72
2022/01/13 12:13:36;;;;;;;1999.90;999.90;;;10.10;99.90;;;;;;5053804;28;20503;-71
2022/01/13 12:16:04;;;;;;;1999.90;999.90;;;10.10;99.90;;;;;;5053962;28;20885;-72
2022/01/13 12:19:01;;;;;;;1999.90;999.90;;;10.10;99.90;;;;;;5053866;28;20442;-72
2022/01/13 12:21:32;;;;;;;1999.90;999.90;;;10.20;99.90;;;;;;5053917;28;20521;-71
2022/01/13 12:24:00;;;;;;;1999.90;999.90;;;10.40;99.90;;;;;;5062144;28;20512;-72
2022/01/13 12:26:48;;;;;;;1999.90;999.90;;;10.40;99.90;;;;;;5073833;28;20465;-72
2022/01/13 12:29:17;;;;;;;1999.90;999.90;;;10.50;99.90;;;;;;5074300;28;20487;-71
2022/01/13 12:31:52;;;;;;;1999.90;999.90;;;10.70;99.90;;;;;;5073677;28;20457;-72
2022/01/13 12:34:43;;;;;;;1999.90;999.90;;;10.70;99.90;;;;;;5073742;28;20441;-72
2022/01/13 12:37:22;;;;;;;1999.90;999.90;;;10.80;99.90;;;;;;5077259;28;20454;-72